createdAt,value
2018-06-19T00:01:01.475Z,16.50
2018-06-19T00:03:28.641Z,16.40
2018-06-19T00:05:55.815Z,16.40
2018-06-19T00:08:23.109Z,16.40
2018-06-19T00:10:50.244Z,16.30
2018-06-19T00:13:17.366Z,16.30
2018-06-19T00:15:44.517Z,16.30
2018-06-19T00:18:19.196Z,16.30
2018-06-19T00:23:13.519Z,16.30
2018-06-19T00:28:07.795Z,16.20
2018-06-19T00:30:34.923Z,16.30
2018-06-19T00:33:02.048Z,16.30
2018-06-19T00:35:29.213Z,16.30
2018-06-19T00:37:56.347Z,16.30
2018-06-19T00:40:23.479Z,16.20
2018-06-19T00:42:50.714Z,16.20
2018-06-19T00:45:17.896Z,16.20
2018-06-19T00:47:45.049Z,16.20
2018-06-19T00:50:12.197Z,16.20
2018-06-19T00:52:39.363Z,16.20
2018-06-19T00:57:33.697Z,16.20
2018-06-19T01:00:00.831Z,16.20
2018-06-19T01:02:28.073Z,16.10
2018-06-19T01:04:55.270Z,16.00
2018-06-19T01:07:22.384Z,15.90
2018-06-19T01:09:49.579Z,15.90
2018-06-19T01:12:16.720Z,15.90
2018-06-19T01:14:43.866Z,15.90
2018-06-19T01:17:10.982Z,15.80
2018-06-19T01:19:38.108Z,15.90
2018-06-19T01:22:05.235Z,15.80
2018-06-19T01:26:59.556Z,15.80
2018-06-19T01:31:53.786Z,15.80
2018-06-19T01:34:20.891Z,15.70
2018-06-19T01:36:47.985Z,15.70
2018-06-19T01:39:15.138Z,15.60
2018-06-19T01:41:42.261Z,15.60
2018-06-19T01:44:09.366Z,15.60
2018-06-19T01:46:36.487Z,15.70
2018-06-19T01:49:03.596Z,15.60
2018-06-19T01:51:30.726Z,15.50
2018-06-19T01:53:57.893Z,15.50
2018-06-19T01:56:25.009Z,15.40
2018-06-19T01:58:52.130Z,15.40
2018-06-19T02:01:19.250Z,15.40
2018-06-19T02:03:46.354Z,15.40
2018-06-19T02:06:13.458Z,15.60
2018-06-19T02:08:40.597Z,15.90
2018-06-19T02:11:07.722Z,15.90
2018-06-19T02:13:34.828Z,15.60
2018-06-19T02:16:01.967Z,15.70
2018-06-19T02:18:29.130Z,15.60
2018-06-19T02:20:56.337Z,15.60
2018-06-19T02:23:23.439Z,15.50
2018-06-19T02:25:50.646Z,15.50
2018-06-19T02:28:17.745Z,15.50
2018-06-19T02:30:44.941Z,15.40
2018-06-19T02:33:12.101Z,15.50
2018-06-19T02:35:39.230Z,15.40
2018-06-19T02:38:06.359Z,15.40
2018-06-19T02:40:33.497Z,15.30
2018-06-19T02:43:00.729Z,15.30
2018-06-19T02:45:27.899Z,15.30
2018-06-19T02:47:55.050Z,15.30
2018-06-19T02:50:22.162Z,15.30
2018-06-19T02:52:49.293Z,15.30
2018-06-19T02:55:16.402Z,15.30
2018-06-19T02:57:43.526Z,15.30
2018-06-19T03:00:10.622Z,15.30
2018-06-19T03:02:37.728Z,15.30
2018-06-19T03:05:05.299Z,15.20
2018-06-19T03:07:32.397Z,15.10
2018-06-19T03:09:59.589Z,15.10
2018-06-19T03:12:26.706Z,15.10
2018-06-19T03:14:53.826Z,15.00
2018-06-19T03:17:20.965Z,15.00
2018-06-19T03:19:48.098Z,15.00
2018-06-19T03:22:15.254Z,14.90
2018-06-19T03:24:42.359Z,14.80
2018-06-19T03:27:09.466Z,14.90
2018-06-19T03:29:36.590Z,14.90
2018-06-19T03:32:03.730Z,14.90
2018-06-19T03:34:30.842Z,14.90
2018-06-19T03:36:58.016Z,14.80
2018-06-19T03:39:25.137Z,15.00
2018-06-19T03:41:52.269Z,15.00
2018-06-19T03:44:19.377Z,15.00
2018-06-19T03:46:46.477Z,15.10
2018-06-19T03:49:13.577Z,15.20
2018-06-19T03:51:40.687Z,15.20
2018-06-19T03:54:07.785Z,15.30
2018-06-19T03:56:34.890Z,15.30
2018-06-19T03:59:02.038Z,15.40
2018-06-19T04:03:56.351Z,15.60
2018-06-19T04:06:28.057Z,15.60
2018-06-19T04:08:55.170Z,15.60
2018-06-19T04:11:22.263Z,15.60
2018-06-19T04:13:49.361Z,15.70
2018-06-19T04:16:16.477Z,15.70
2018-06-19T04:18:43.577Z,15.90
2018-06-19T04:21:10.670Z,15.90
2018-06-19T04:23:37.825Z,16.00
2018-06-19T04:26:06.050Z,16.10
2018-06-19T04:28:33.222Z,16.20
2018-06-19T04:31:00.390Z,16.30
2018-06-19T04:33:27.510Z,16.40
2018-06-19T04:35:54.649Z,16.50
2018-06-19T04:38:21.736Z,16.70
2018-06-19T04:40:48.824Z,17.00
2018-06-19T04:43:15.921Z,17.20
2018-06-19T04:45:43.018Z,17.30
2018-06-19T04:48:10.114Z,17.60
2018-06-19T04:50:37.231Z,18.00
2018-06-19T04:53:04.393Z,18.10
2018-06-19T04:55:31.481Z,18.70
2018-06-19T04:57:58.661Z,20.10
2018-06-19T05:00:25.883Z,22.70
2018-06-19T05:02:52.996Z,24.80
2018-06-19T05:05:20.121Z,26.20
2018-06-19T05:07:47.224Z,27.20
2018-06-19T05:10:14.333Z,28.50
2018-06-19T05:12:41.446Z,29.10
2018-06-19T05:15:08.574Z,30.00
2018-06-19T05:17:35.661Z,30.90
2018-06-19T05:20:02.837Z,31.30
2018-06-19T05:22:29.981Z,31.30
2018-06-19T05:24:57.160Z,32.10
2018-06-19T05:27:24.245Z,32.60
2018-06-19T05:32:18.504Z,32.70
2018-06-19T05:34:45.594Z,33.30
2018-06-19T05:37:12.725Z,34.30
2018-06-19T05:39:39.831Z,35.00
2018-06-19T05:42:06.953Z,34.30
2018-06-19T05:44:34.054Z,35.00
2018-06-19T05:47:01.227Z,35.80
2018-06-19T05:51:55.562Z,35.80
2018-06-19T05:56:49.854Z,36.80
2018-06-19T05:59:16.993Z,37.40
2018-06-19T06:01:44.110Z,37.90
2018-06-19T06:04:11.226Z,38.40
2018-06-19T06:06:38.332Z,38.30
2018-06-19T06:09:06.930Z,39.20
2018-06-19T06:11:34.072Z,39.80
2018-06-19T06:16:28.405Z,39.80
2018-06-19T06:18:55.479Z,39.40
2018-06-19T06:21:22.765Z,39.70
2018-06-19T06:23:49.877Z,41.10
2018-06-19T06:26:17.033Z,41.30
2018-06-19T06:28:44.150Z,41.20
2018-06-19T06:31:11.263Z,41.60
2018-06-19T06:33:38.373Z,41.30
2018-06-19T06:36:05.520Z,42.40
2018-06-19T06:38:32.671Z,41.20
2018-06-19T06:43:26.996Z,35.90
2018-06-19T06:45:54.115Z,35.60
2018-06-19T06:48:21.257Z,37.50
2018-06-19T06:50:48.416Z,37.50
2018-06-19T06:53:15.520Z,35.10
2018-06-19T06:55:43.069Z,35.00
2018-06-19T06:58:10.188Z,34.00
2018-06-19T07:00:37.298Z,31.60
2018-06-19T07:03:04.426Z,30.20
2018-06-19T07:07:58.698Z,30.30
2018-06-19T07:10:25.945Z,31.90
2018-06-19T07:12:53.042Z,32.70
2018-06-19T07:15:20.190Z,32.40
2018-06-19T07:17:47.289Z,34.60
2018-06-19T07:20:14.407Z,32.60
2018-06-19T07:22:41.498Z,31.60
2018-06-19T07:25:08.621Z,31.70
2018-06-19T07:27:35.800Z,31.00
2018-06-19T07:30:02.957Z,30.40
2018-06-19T07:32:30.100Z,30.10
2018-06-19T07:34:57.252Z,29.00
2018-06-19T07:37:24.350Z,28.30
2018-06-19T07:39:51.447Z,32.20
2018-06-19T07:42:18.538Z,33.20
2018-06-19T07:44:45.619Z,32.50
2018-06-19T07:47:12.749Z,30.80
2018-06-19T07:49:39.850Z,29.90
2018-06-19T07:52:06.953Z,29.20
2018-06-19T07:54:34.058Z,28.90
2018-06-19T07:57:01.188Z,28.70
2018-06-19T07:59:28.375Z,28.80
2018-06-19T08:01:55.497Z,29.20
2018-06-19T08:04:22.653Z,30.70
2018-06-19T08:06:49.739Z,30.20
2018-06-19T08:09:16.927Z,30.10
2018-06-19T08:11:44.194Z,29.80
2018-06-19T08:14:11.285Z,29.20
2018-06-19T08:16:38.404Z,28.70
2018-06-19T08:19:05.538Z,27.80
2018-06-19T08:21:32.640Z,27.50
2018-06-19T08:23:59.794Z,27.60
2018-06-19T08:26:27.010Z,28.00
2018-06-19T08:28:54.233Z,28.90
2018-06-19T08:31:21.357Z,29.50
2018-06-19T08:33:48.479Z,28.70
2018-06-19T08:36:15.627Z,28.20
2018-06-19T08:38:42.709Z,28.50
2018-06-19T08:41:09.957Z,28.80
2018-06-19T08:43:37.071Z,28.90
2018-06-19T08:46:04.221Z,28.60
2018-06-19T08:48:31.369Z,28.00
2018-06-19T08:50:58.549Z,27.60
2018-06-19T08:53:25.679Z,26.50
2018-06-19T08:55:52.860Z,26.10
2018-06-19T08:58:20.002Z,26.00
2018-06-19T09:00:47.118Z,26.20
2018-06-19T09:03:14.245Z,26.10
2018-06-19T09:05:41.394Z,25.90
2018-06-19T09:08:08.509Z,26.00
2018-06-19T09:13:02.786Z,26.20
2018-06-19T09:15:29.942Z,26.20
2018-06-19T09:17:57.118Z,26.20
2018-06-19T09:20:24.245Z,25.90
2018-06-19T09:22:51.349Z,26.00
2018-06-19T09:25:18.457Z,26.00
2018-06-19T09:27:45.565Z,26.20
2018-06-19T09:30:12.710Z,26.30
2018-06-19T09:32:39.842Z,26.20
2018-06-19T09:35:06.957Z,26.40
2018-06-19T09:37:34.149Z,26.70
2018-06-19T09:40:01.266Z,26.60
2018-06-19T09:42:28.397Z,26.80
2018-06-19T09:44:55.540Z,27.10
2018-06-19T09:47:22.731Z,27.30
2018-06-19T09:49:49.842Z,27.30
2018-06-19T09:52:16.944Z,27.50
2018-06-19T09:54:44.157Z,27.60
2018-06-19T09:57:11.281Z,27.70
2018-06-19T09:59:38.528Z,27.50
2018-06-19T10:02:05.633Z,27.30
2018-06-19T10:04:32.738Z,26.80
2018-06-19T10:06:59.900Z,26.80
2018-06-19T10:09:27.146Z,26.90
2018-06-19T10:11:54.382Z,27.20
2018-06-19T10:14:21.492Z,27.80
2018-06-19T10:16:48.622Z,28.30
2018-06-19T10:19:15.765Z,28.40
2018-06-19T10:21:42.885Z,28.20
2018-06-19T10:24:10.005Z,28.00
2018-06-19T10:26:37.133Z,28.10
2018-06-19T10:29:04.272Z,28.30
2018-06-19T10:31:31.477Z,28.20
2018-06-19T10:33:58.674Z,28.30
2018-06-19T10:36:25.829Z,28.60
2018-06-19T10:38:52.942Z,28.90
2018-06-19T10:46:14.369Z,30.10
2018-06-19T10:48:41.468Z,30.40
2018-06-19T10:51:08.586Z,30.60
2018-06-19T10:53:35.705Z,30.80
2018-06-19T10:56:02.827Z,31.00
2018-06-19T10:58:30.063Z,31.00
2018-06-19T11:00:57.241Z,30.80
2018-06-19T11:03:24.341Z,30.30
2018-06-19T11:05:51.518Z,30.50
2018-06-19T11:08:18.683Z,30.30
2018-06-19T11:10:45.736Z,30.20
2018-06-19T11:13:12.881Z,29.90
2018-06-19T11:15:39.997Z,29.80
2018-06-19T11:18:07.121Z,29.30
2018-06-19T11:20:34.249Z,28.80
2018-06-19T11:23:01.425Z,28.50
2018-06-19T11:25:28.914Z,28.20
2018-06-19T11:27:56.101Z,28.20
2018-06-19T11:32:57.207Z,28.40
2018-06-19T11:35:24.342Z,28.60
2018-06-19T11:37:51.636Z,28.50
2018-06-19T11:40:18.788Z,28.50
2018-06-19T11:42:45.909Z,28.40
2018-06-19T11:45:12.997Z,28.40
2018-06-19T11:47:40.113Z,28.20
2018-06-19T11:50:07.261Z,28.00
2018-06-19T11:52:34.474Z,27.90
2018-06-19T11:55:01.670Z,28.10
2018-06-19T11:57:28.869Z,28.40
2018-06-19T11:59:56.293Z,28.80
2018-06-19T12:02:23.478Z,29.10
2018-06-19T12:04:50.582Z,29.30
2018-06-19T12:07:17.718Z,29.50
2018-06-19T12:09:44.813Z,29.90
2018-06-19T12:12:11.929Z,29.70
2018-06-19T12:14:39.094Z,29.60
2018-06-19T12:17:06.201Z,29.40
2018-06-19T12:19:33.293Z,29.40
2018-06-19T12:24:27.610Z,29.00
2018-06-19T12:26:54.817Z,28.80
2018-06-19T12:29:21.967Z,28.60
2018-06-19T12:31:49.081Z,28.40
2018-06-19T12:34:16.175Z,28.20
2018-06-19T12:36:43.274Z,28.30
2018-06-19T12:39:11.249Z,27.90
2018-06-19T12:41:41.656Z,28.30
2018-06-19T12:44:09.174Z,28.40
2018-06-19T12:46:36.846Z,28.60
2018-06-19T12:49:04.209Z,28.70
2018-06-19T12:51:49.514Z,28.80
2018-06-19T12:54:26.046Z,28.90
2018-06-19T12:59:20.309Z,28.80
2018-06-19T13:01:47.426Z,29.10
2018-06-19T13:05:27.234Z,29.30
2018-06-19T13:07:54.341Z,29.10
2018-06-19T13:10:21.462Z,29.10
2018-06-19T13:13:26.961Z,29.00
2018-06-19T13:15:54.652Z,29.20
2018-06-19T13:18:34.576Z,29.50
2018-06-19T13:21:01.792Z,29.30
2018-06-19T13:23:29.221Z,29.20
2018-06-19T13:25:56.520Z,29.20
2018-06-19T13:29:39.416Z,29.20
2018-06-19T13:32:06.552Z,29.30
2018-06-19T13:37:02.541Z,29.40
2018-06-19T13:39:29.829Z,29.50
2018-06-19T13:42:08.548Z,29.40
2018-06-19T13:44:51.594Z,29.30
2018-06-19T13:47:19.274Z,29.00
2018-06-19T13:49:46.445Z,28.80
2018-06-19T13:52:13.549Z,28.50
2018-06-19T13:54:40.651Z,28.70
2018-06-19T13:57:36.646Z,29.10
2018-06-19T14:00:07.833Z,29.40
2018-06-19T14:02:34.951Z,29.40
2018-06-19T14:05:02.575Z,29.30
2018-06-19T14:07:36.655Z,29.20
2018-06-19T14:10:15.455Z,28.80
2018-06-19T14:13:01.185Z,29.10
2018-06-19T14:15:30.897Z,29.10
2018-06-19T14:17:58.349Z,28.70
2018-06-19T14:20:25.511Z,29.10
2018-06-19T14:22:52.793Z,29.30
2018-06-19T14:25:20.340Z,29.40
2018-06-19T14:27:47.533Z,29.30
2018-06-19T14:30:14.715Z,29.20
2018-06-19T14:32:42.137Z,29.20
2018-06-19T14:35:09.622Z,29.20
2018-06-19T14:37:36.754Z,28.90
2018-06-19T14:40:04.162Z,28.60
2018-06-19T14:42:31.444Z,28.20
2018-06-19T14:47:26.009Z,28.20
2018-06-19T14:49:53.218Z,28.10
2018-06-19T14:52:20.367Z,27.90
2018-06-19T14:54:47.489Z,28.20
2018-06-19T14:57:14.613Z,28.20
2018-06-19T14:59:41.753Z,28.10
2018-06-19T15:02:08.891Z,28.30
2018-06-19T15:04:36.006Z,27.70
2018-06-19T15:07:03.225Z,27.80
2018-06-19T15:09:30.418Z,27.70
2018-06-19T15:11:57.770Z,27.80
2018-06-19T15:14:24.940Z,27.60
2018-06-19T15:16:52.253Z,27.20
2018-06-19T15:19:19.361Z,26.90
2018-06-19T15:21:46.637Z,26.60
2018-06-19T15:24:13.927Z,26.80
2018-06-19T15:26:40.938Z,27.30
2018-06-19T15:29:08.082Z,27.70
2018-06-19T15:31:35.238Z,27.90
2018-06-19T15:34:02.382Z,28.10
2018-06-19T15:36:29.675Z,28.20
2018-06-19T15:38:56.826Z,27.50
2018-06-19T15:41:23.974Z,27.60
2018-06-19T15:43:51.110Z,27.40
2018-06-19T15:46:18.201Z,27.40
2018-06-19T15:48:45.343Z,26.70
2018-06-19T15:51:12.481Z,26.70
2018-06-19T15:53:39.619Z,26.90
2018-06-19T15:56:06.757Z,27.10
2018-06-19T15:58:33.890Z,27.30
2018-06-19T16:01:01.075Z,27.40
2018-06-19T16:03:28.452Z,27.50
2018-06-19T16:05:55.638Z,27.50
2018-06-19T16:08:22.745Z,27.40
2018-06-19T16:10:49.906Z,27.30
2018-06-19T16:13:17.036Z,27.40
2018-06-19T16:15:44.150Z,27.50
2018-06-19T16:18:11.761Z,27.00
2018-06-19T16:20:38.914Z,27.10
2018-06-19T16:23:06.129Z,26.30
2018-06-19T16:25:33.695Z,26.10
2018-06-19T16:28:01.038Z,26.40
2018-06-19T16:30:28.191Z,26.10
2018-06-19T16:32:55.341Z,26.30
2018-06-19T16:35:22.509Z,26.70
2018-06-19T16:37:49.682Z,26.60
2018-06-19T16:40:16.815Z,26.70
2018-06-19T16:42:43.923Z,26.70
2018-06-19T16:45:11.053Z,26.60
2018-06-19T16:47:38.192Z,26.40
2018-06-19T16:50:05.541Z,26.60
2018-06-19T16:52:32.657Z,26.90
2018-06-19T16:54:59.944Z,27.00
2018-06-19T16:57:27.070Z,26.50
2018-06-19T16:59:54.158Z,26.20
2018-06-19T17:02:21.297Z,26.20
2018-06-19T17:04:48.438Z,25.90
2018-06-19T17:07:15.724Z,25.80
2018-06-19T17:09:42.994Z,25.60
2018-06-19T17:12:11.245Z,25.50
2018-06-19T17:14:39.529Z,25.90
2018-06-19T17:17:08.217Z,25.90
2018-06-19T17:19:37.702Z,25.80
2018-06-19T17:22:04.898Z,25.90
2018-06-19T17:24:32.403Z,25.90
2018-06-19T17:26:59.557Z,25.90
2018-06-19T17:29:27.229Z,26.00
2018-06-19T17:31:54.372Z,25.70
2018-06-19T17:34:21.530Z,25.30
2018-06-19T17:36:48.665Z,25.00
2018-06-19T17:39:15.770Z,24.80
2018-06-19T17:41:42.877Z,24.60
2018-06-19T17:44:10.004Z,24.50
2018-06-19T17:46:37.119Z,24.40
2018-06-19T17:51:31.413Z,24.20
2018-06-19T17:53:58.606Z,24.30
2018-06-19T17:56:25.755Z,24.20
2018-06-19T17:58:52.925Z,24.00
2018-06-19T18:01:20.054Z,23.90
2018-06-19T18:03:47.249Z,24.00
2018-06-19T18:06:14.350Z,24.00
2018-06-19T18:08:41.529Z,24.00
2018-06-19T18:11:08.630Z,24.10
2018-06-19T18:13:35.737Z,24.00
2018-06-19T18:16:02.845Z,24.10
2018-06-19T18:18:30.116Z,24.10
2018-06-19T18:20:57.317Z,24.00
2018-06-19T18:23:24.487Z,24.10
2018-06-19T18:25:51.593Z,24.00
2018-06-19T18:28:18.689Z,24.00
2018-06-19T18:30:45.976Z,23.90
2018-06-19T18:33:13.173Z,23.80
2018-06-19T18:35:40.261Z,23.90
2018-06-19T18:38:07.726Z,23.80
2018-06-19T18:40:34.904Z,23.70
2018-06-19T18:43:02.033Z,23.70
2018-06-19T18:45:29.206Z,23.70
2018-06-19T18:47:56.487Z,23.60
2018-06-19T18:50:23.669Z,23.50
2018-06-19T18:52:50.786Z,23.50
2018-06-19T18:55:17.916Z,23.40
2018-06-19T18:57:45.035Z,23.30
2018-06-19T19:00:12.189Z,23.30
2018-06-19T19:02:39.285Z,23.20
2018-06-19T19:05:06.425Z,23.00
2018-06-19T19:07:33.654Z,22.80
2018-06-19T19:10:06.598Z,22.60
2018-06-19T19:12:33.758Z,22.50
2018-06-19T19:15:06.756Z,22.20
2018-06-19T19:17:39.777Z,22.10
2018-06-19T19:20:06.885Z,21.90
2018-06-19T19:22:34.003Z,21.80
2018-06-19T19:25:01.209Z,21.70
2018-06-19T19:27:34.169Z,21.60
2018-06-19T19:30:02.267Z,21.50
2018-06-19T19:32:29.461Z,21.40
2018-06-19T19:34:56.600Z,21.30
2018-06-19T19:37:29.605Z,21.20
2018-06-19T19:39:56.761Z,21.10
2018-06-19T19:42:23.877Z,21.00
2018-06-19T19:44:50.990Z,20.90
2018-06-19T19:47:23.866Z,20.90
2018-06-19T19:54:45.269Z,20.70
2018-06-19T19:57:18.119Z,20.70
2018-06-19T19:59:45.354Z,20.80
2018-06-19T20:02:12.395Z,20.70
2018-06-19T20:04:39.689Z,20.70
2018-06-19T20:07:06.822Z,20.70
2018-06-19T20:09:34.134Z,20.60
2018-06-19T20:12:01.306Z,20.50
2018-06-19T20:14:28.526Z,20.50
2018-06-19T20:16:55.643Z,20.40
2018-06-19T20:19:22.752Z,20.40
2018-06-19T20:21:49.853Z,20.30
2018-06-19T20:24:16.973Z,20.20
2018-06-19T20:26:44.097Z,20.20
2018-06-19T20:29:11.244Z,20.20
2018-06-19T20:31:38.345Z,20.20
2018-06-19T20:34:05.847Z,20.20
2018-06-19T20:36:33.048Z,20.10
2018-06-19T20:39:00.206Z,20.10
2018-06-19T20:41:27.401Z,19.90
2018-06-19T20:43:54.576Z,20.10
2018-06-19T20:46:21.705Z,20.00
2018-06-19T20:48:48.840Z,20.00
2018-06-19T20:51:16.035Z,20.00
2018-06-19T20:53:43.286Z,20.00
2018-06-19T20:56:10.629Z,19.90
2018-06-19T20:58:38.699Z,19.90
2018-06-19T21:01:05.872Z,19.90
2018-06-19T21:03:33.311Z,19.80
2018-06-19T21:06:00.561Z,19.70
2018-06-19T21:08:33.560Z,19.60
2018-06-19T21:11:00.780Z,19.70
2018-06-19T21:13:28.118Z,19.60
2018-06-19T21:15:55.209Z,19.50
2018-06-19T21:18:22.326Z,19.50
2018-06-19T21:20:49.465Z,19.60
2018-06-19T21:23:16.578Z,19.60
2018-06-19T21:25:43.717Z,19.70
2018-06-19T21:28:10.826Z,19.70
2018-06-19T21:30:37.962Z,19.70
2018-06-19T21:33:05.341Z,19.70
2018-06-19T21:35:32.440Z,19.70
2018-06-19T21:37:59.644Z,19.80
2018-06-19T21:40:26.827Z,19.70
2018-06-19T21:42:53.950Z,19.70
2018-06-19T21:45:21.057Z,19.60
2018-06-19T21:47:48.176Z,19.50
2018-06-19T21:50:15.257Z,19.30
2018-06-19T21:52:42.397Z,19.20
2018-06-19T21:55:09.513Z,19.30
2018-06-19T21:57:36.654Z,19.20
2018-06-19T22:00:04.555Z,19.30
2018-06-19T22:02:32.629Z,19.30
2018-06-19T22:05:00.727Z,19.30
2018-06-19T22:07:27.881Z,19.30
2018-06-19T22:09:55.003Z,19.30
2018-06-19T22:14:49.226Z,19.30
2018-06-19T22:17:16.629Z,19.40
2018-06-19T22:19:43.729Z,19.40
2018-06-19T22:22:10.826Z,19.20
2018-06-19T22:27:05.299Z,19.20
2018-06-19T22:29:32.456Z,19.20
2018-06-19T22:31:59.716Z,19.00
2018-06-19T22:34:26.865Z,18.90
2018-06-19T22:36:53.987Z,18.90
2018-06-19T22:39:21.068Z,18.90
2018-06-19T22:41:48.183Z,18.90
2018-06-19T22:44:15.308Z,19.00
2018-06-19T22:46:42.405Z,19.00
2018-06-19T22:49:09.514Z,18.90
2018-06-19T22:51:36.638Z,19.10
2018-06-19T22:54:03.769Z,19.10
2018-06-19T22:56:30.862Z,19.20
2018-06-19T22:58:57.955Z,19.30
2018-06-19T23:01:25.084Z,19.30
2018-06-19T23:03:52.185Z,19.30
2018-06-19T23:06:19.591Z,19.40
2018-06-19T23:08:46.736Z,19.40
2018-06-19T23:11:13.850Z,19.40
2018-06-19T23:13:41.021Z,19.50
2018-06-19T23:16:08.189Z,19.50
2018-06-19T23:18:35.346Z,19.60
2018-06-19T23:21:02.482Z,19.60
2018-06-19T23:23:29.573Z,19.60
2018-06-19T23:25:56.700Z,19.60
2018-06-19T23:28:23.802Z,19.60
2018-06-19T23:30:50.914Z,19.70
2018-06-19T23:33:18.049Z,19.60
2018-06-19T23:35:45.150Z,19.60
2018-06-19T23:38:12.237Z,19.60
2018-06-19T23:40:39.337Z,19.70
2018-06-19T23:45:40.507Z,19.60
2018-06-19T23:48:07.618Z,19.60
2018-06-19T23:50:34.742Z,19.60
2018-06-19T23:53:01.841Z,19.40
2018-06-19T23:55:28.966Z,19.30
2018-06-19T23:57:56.044Z,19.40
